Time;durP1;ratioP1;P1;durP2;ratioP2;P2;SDS_P1;SDS_P2;PMS_P1;PMS_P2;Temp;Humidity;BMP_temperature;BMP_pressure;BME280_temperature;BME280_humidity;BME280_pressure;Samples;Min_cycle;Max_cycle;Signal;HPM_P1;HPM_P2
2022/04/01 00:02:06;;;;;;;4.25;1.80;;;1.20;90.20;;;;;;5095374;28;20046;-79
2022/04/01 00:04:32;;;;;;;3.53;1.65;;;1.30;90.30;;;;;;5095426;28;20040;-79
2022/04/01 00:06:58;;;;;;;3.05;1.45;;;1.30;90.30;;;;;;5095234;28;20127;-79
2022/04/01 00:09:24;;;;;;;4.57;1.73;;;1.30;90.20;;;;;;5095244;28;20043;-79
2022/04/01 00:11:51;;;;;;;5.40;2.03;;;1.30;90.20;;;;;;5095428;28;20050;-79
2022/04/01 00:14:17;;;;;;;4.32;1.75;;;1.30;90.20;;;;;;5078578;28;20043;-79
2022/04/01 00:16:43;;;;;;;3.95;1.75;;;1.30;90.20;;;;;;5078627;28;20404;-79
2022/04/01 00:19:08;;;;;;;3.35;1.70;;;1.20;90.20;;;;;;5095409;28;20588;-79
2022/04/01 00:21:35;;;;;;;3.33;1.83;;;1.20;90.40;;;;;;5095194;28;20476;-79
2022/04/01 00:24:01;;;;;;;4.22;2.17;;;1.20;90.40;;;;;;5095237;28;20039;-79
2022/04/01 00:26:27;;;;;;;2.95;1.48;;;1.30;90.50;;;;;;5078134;28;20079;-79
2022/04/01 00:28:53;;;;;;;4.95;1.73;;;1.20;90.60;;;;;;5094998;28;20042;-78
2022/04/01 00:31:18;;;;;;;5.13;1.95;;;1.20;90.60;;;;;;5044896;28;20036;-78
2022/04/01 00:33:44;;;;;;;5.05;1.60;;;1.20;90.50;;;;;;5094997;28;20044;-78
2022/04/01 00:36:10;;;;;;;4.28;1.50;;;1.20;90.50;;;;;;5061651;28;20036;-78
2022/04/01 00:38:35;;;;;;;2.35;1.50;;;1.30;90.40;;;;;;5094710;28;20597;-78
2022/04/01 00:41:02;;;;;;;5.38;2.05;;;1.30;90.30;;;;;;5098732;28;20376;-78
2022/04/01 00:43:34;;;;;;;2.53;1.30;;;1.20;90.00;;;;;;5099038;28;20039;-78
2022/04/01 00:46:00;;;;;;;4.47;1.88;;;1.30;90.10;;;;;;5098863;28;20131;-78
2022/04/01 00:48:26;;;;;;;4.43;1.70;;;1.30;89.70;;;;;;5081925;28;20072;-78
2022/04/01 00:50:53;;;;;;;3.63;1.60;;;1.30;89.70;;;;;;5082340;28;20398;-78
2022/04/01 00:53:20;;;;;;;5.03;1.55;;;1.30;89.70;;;;;;5081795;28;20043;-78
2022/04/01 00:55:47;;;;;;;4.38;1.50;;;1.30;89.20;;;;;;5098981;28;20380;-78
2022/04/01 00:58:13;;;;;;;5.35;1.60;;;1.30;89.30;;;;;;5099002;28;20415;-78
2022/04/01 01:00:39;;;;;;;2.47;1.20;;;1.30;89.10;;;;;;5098853;28;20050;-78
2022/04/01 01:03:05;;;;;;;2.47;1.52;;;1.40;89.10;;;;;;5081802;28;20468;-78
2022/04/01 01:05:31;;;;;;;3.33;1.55;;;1.40;88.50;;;;;;5098474;28;20119;-78
2022/04/01 01:07:58;;;;;;;3.30;1.27;;;1.30;87.70;;;;;;5081785;28;20074;-77
2022/04/01 01:10:25;;;;;;;4.35;1.40;;;1.40;88.20;;;;;;5098757;28;20247;-77
2022/04/01 01:12:52;;;;;;;4.43;2.22;;;1.40;88.00;;;;;;5081813;28;20039;-77
2022/04/01 01:15:18;;;;;;;3.83;1.63;;;1.40;87.30;;;;;;5098610;28;20043;-77
2022/04/01 01:17:45;;;;;;;2.83;1.30;;;1.40;87.60;;;;;;5098175;28;20039;-77
2022/04/01 01:20:13;;;;;;;3.05;1.10;;;1.50;87.00;;;;;;5098613;28;20455;-77
2022/04/01 01:22:42;;;;;;;3.15;1.40;;;1.50;87.40;;;;;;5098502;28;20369;-77
2022/04/01 01:25:09;;;;;;;3.30;1.40;;;1.50;87.10;;;;;;5098026;28;20036;-77
2022/04/01 01:27:36;;;;;;;3.67;1.38;;;1.50;86.60;;;;;;5081638;28;20407;-77
2022/04/01 01:30:03;;;;;;;2.92;1.52;;;1.50;86.30;;;;;;5098523;28;20174;-77
2022/04/01 01:32:29;;;;;;;2.42;1.35;;;1.50;86.80;;;;;;5098139;28;20104;-77
2022/04/01 01:34:58;;;;;;;2.88;1.05;;;1.50;85.20;;;;;;5081451;28;20047;-77
2022/04/01 01:37:24;;;;;;;3.65;1.40;;;1.40;84.90;;;;;;5097957;28;20051;-77
2022/04/01 01:39:50;;;;;;;3.65;1.45;;;1.40;85.40;;;;;;5097715;28;20052;-77
2022/04/01 01:42:17;;;;;;;5.32;1.63;;;1.40;86.00;;;;;;5098184;28;20116;-77
2022/04/01 01:44:43;;;;;;;2.90;1.20;;;1.50;85.90;;;;;;5097793;28;20054;-77
2022/04/01 01:47:09;;;;;;;3.85;1.50;;;1.50;85.80;;;;;;5080926;28;20130;-77
2022/04/01 01:49:35;;;;;;;3.10;1.20;;;1.60;85.90;;;;;;5081238;28;20035;-77
2022/04/01 01:54:59;;;;;;;3.95;1.50;;;1.60;85.60;;;;;;5081172;28;20070;-77
2022/04/01 01:57:25;;;;;;;2.30;1.00;;;1.60;85.60;;;;;;5097859;28;20498;-78
2022/04/01 01:59:53;;;;;;;5.38;2.03;;;1.60;85.50;;;;;;5080711;28;20036;-78
2022/04/01 02:02:20;;;;;;;5.05;1.60;;;1.60;85.60;;;;;;5097843;28;20463;-77
2022/04/01 02:04:46;;;;;;;6.03;1.35;;;1.60;84.90;;;;;;5097278;28;20126;-78
2022/04/01 02:07:12;;;;;;;5.90;1.90;;;1.60;85.10;;;;;;5097643;28;20047;-77
2022/04/01 02:09:40;;;;;;;3.75;1.38;;;1.60;85.00;;;;;;5080799;28;20368;-77
2022/04/01 02:12:06;;;;;;;2.92;1.30;;;1.60;85.40;;;;;;5097367;28;20108;-77
2022/04/01 02:14:34;;;;;;;7.35;1.45;;;1.60;85.30;;;;;;5097313;28;20038;-77
2022/04/01 02:17:00;;;;;;;6.45;2.97;;;1.60;85.20;;;;;;5080804;28;20031;-77
2022/04/01 02:19:25;;;;;;;4.80;1.25;;;1.60;85.10;;;;;;5097074;28;20043;-77
2022/04/01 02:21:52;;;;;;;4.47;1.50;;;1.70;85.10;;;;;;5080279;28;20040;-77
2022/04/01 02:24:21;;;;;;;2.67;1.20;;;1.60;84.70;;;;;;5097298;28;20058;-77
2022/04/01 02:26:47;;;;;;;7.90;1.70;;;1.60;84.70;;;;;;5096953;28;20093;-77
2022/04/01 02:29:19;;;;;;;4.78;1.55;;;1.70;85.00;;;;;;5096993;28;20039;-77
2022/04/01 02:31:45;;;;;;;4.78;1.83;;;1.70;85.10;;;;;;5097183;28;20399;-77
2022/04/01 02:34:12;;;;;;;5.43;1.63;;;1.70;84.90;;;;;;5080233;28;20074;-77
2022/04/01 02:36:38;;;;;;;5.03;1.70;;;1.70;84.50;;;;;;5080205;28;20047;-77
2022/04/01 02:39:05;;;;;;;5.85;1.73;;;1.70;84.90;;;;;;5093449;28;20055;-77
2022/04/01 02:41:31;;;;;;;4.28;1.20;;;1.70;84.70;;;;;;5076764;28;20396;-77
2022/04/01 02:44:08;;;;;;;3.05;1.58;;;1.70;84.90;;;;;;5093252;28;20097;-77
2022/04/01 02:46:38;;;;;;;5.35;1.92;;;1.70;84.90;;;;;;5076356;28;20047;-77
2022/04/01 02:49:06;;;;;;;4.82;1.48;;;1.60;84.90;;;;;;5093289;28;20534;-77
2022/04/01 02:51:36;;;;;;;4.60;1.58;;;1.60;84.70;;;;;;5093449;28;20032;-77
2022/04/01 02:54:04;;;;;;;3.95;1.65;;;1.70;85.00;;;;;;5093225;28;20036;-77
2022/04/01 02:56:31;;;;;;;7.40;2.22;;;1.70;84.80;;;;;;5093000;28;20078;-77
2022/04/01 02:58:58;;;;;;;5.95;1.77;;;1.80;84.70;;;;;;5076465;28;20032;-77
2022/04/01 03:01:24;;;;;;;4.47;1.75;;;1.70;83.90;;;;;;5093228;28;20036;-77
2022/04/01 03:03:49;;;;;;;4.53;1.42;;;1.70;84.40;;;;;;5091863;28;20472;-77
2022/04/01 03:06:16;;;;;;;6.13;1.33;;;1.70;84.30;;;;;;5075995;28;20089;-77
2022/04/01 03:08:43;;;;;;;5.63;1.60;;;1.70;84.40;;;;;;5076208;28;20066;-77
2022/04/01 03:11:09;;;;;;;3.30;1.73;;;1.70;84.40;;;;;;5092770;28;20051;-77
2022/04/01 03:13:35;;;;;;;3.45;1.23;;;1.80;84.50;;;;;;5075740;28;20075;-77
2022/04/01 03:16:02;;;;;;;4.30;1.40;;;1.80;83.90;;;;;;5092756;28;20082;-77
2022/04/01 03:18:28;;;;;;;5.95;1.48;;;1.70;83.40;;;;;;5093102;28;20043;-77
2022/04/01 03:20:53;;;;;;;7.53;1.95;;;1.70;83.60;;;;;;5092596;28;20039;-77
2022/04/01 03:23:19;;;;;;;5.97;1.88;;;1.70;83.90;;;;;;5076063;28;20035;-77
2022/04/01 03:25:45;;;;;;;4.82;1.30;;;1.70;83.50;;;;;;5075727;28;20044;-77
2022/04/01 03:28:12;;;;;;;4.82;1.35;;;1.80;83.40;;;;;;5092470;28;20499;-77
2022/04/01 03:30:40;;;;;;;3.78;1.38;;;1.80;83.80;;;;;;5075810;28;20369;-77
2022/04/01 03:33:06;;;;;;;3.38;1.38;;;1.80;83.70;;;;;;5075575;28;20040;-77
2022/04/01 03:35:32;;;;;;;4.90;1.52;;;1.70;83.90;;;;;;5075676;28;20036;-77
2022/04/01 03:37:59;;;;;;;2.10;1.23;;;1.70;83.80;;;;;;5092339;28;20118;-77
2022/04/01 03:40:29;;;;;;;4.13;1.20;;;1.70;83.80;;;;;;5075163;28;20492;-77
2022/04/01 03:42:55;;;;;;;2.67;1.33;;;1.70;83.90;;;;;;5075289;28;20079;-77
2022/04/01 03:45:22;;;;;;;2.90;1.00;;;1.80;83.70;;;;;;5092093;28;20047;-77
2022/04/01 03:48:06;;;;;;;6.05;1.40;;;1.70;83.40;;;;;;5075293;28;20046;-77
2022/04/01 03:50:34;;;;;;;3.40;1.30;;;1.70;82.70;;;;;;5075390;28;20037;-77
2022/04/01 03:53:08;;;;;;;5.60;1.13;;;1.80;83.10;;;;;;5075155;28;20274;-77
2022/04/01 03:55:40;;;;;;;5.47;1.73;;;1.80;83.80;;;;;;5092068;28;20128;-77
2022/04/01 03:58:08;;;;;;;2.55;1.27;;;1.80;83.40;;;;;;5075417;28;20067;-77
2022/04/01 04:00:35;;;;;;;3.78;1.48;;;1.80;83.00;;;;;;5092116;28;20051;-77
2022/04/01 04:03:07;;;;;;;5.70;1.45;;;1.80;83.00;;;;;;5091973;28;20036;-77
2022/04/01 04:05:42;;;;;;;3.38;1.30;;;1.80;83.30;;;;;;5074919;28;20052;-77
2022/04/01 04:08:10;;;;;;;3.47;1.17;;;1.80;83.30;;;;;;5076166;28;20373;-77
2022/04/01 04:10:37;;;;;;;4.90;1.48;;;1.80;83.40;;;;;;5091871;28;20114;-77
2022/04/01 04:13:07;;;;;;;3.40;2.00;;;1.80;83.50;;;;;;5074653;28;20053;-77
2022/04/01 04:15:56;;;;;;;4.88;1.58;;;1.90;82.90;;;;;;5091311;28;20051;-77
2022/04/01 04:18:27;;;;;;;4.00;1.40;;;1.80;83.20;;;;;;5047033;28;20051;-77
2022/04/01 04:21:16;;;;;;;5.93;1.73;;;1.90;83.30;;;;;;5091792;28;20040;-77
2022/04/01 04:23:47;;;;;;;7.25;1.40;;;1.90;83.00;;;;;;5091802;28;20031;-77
2022/04/01 04:26:16;;;;;;;3.08;1.10;;;1.90;83.00;;;;;;5091591;28;20047;-77
2022/04/01 04:28:50;;;;;;;7.05;2.33;;;1.90;83.20;;;;;;5091961;28;20044;-77
2022/04/01 04:31:28;;;;;;;5.70;1.40;;;2.00;83.20;;;;;;5074850;28;20075;-77
2022/04/01 04:33:56;;;;;;;3.05;1.33;;;1.90;82.70;;;;;;5074807;28;20042;-77
2022/04/01 04:36:29;;;;;;;6.80;2.58;;;2.00;83.00;;;;;;5074732;28;20492;-77
2022/04/01 04:38:55;;;;;;;3.45;1.70;;;1.90;83.10;;;;;;5092644;28;20499;-77
2022/04/01 04:41:22;;;;;;;5.55;1.45;;;1.90;82.50;;;;;;5095042;28;20050;-77
2022/04/01 04:43:50;;;;;;;3.40;1.50;;;1.90;82.90;;;;;;5095027;28;20036;-77
2022/04/01 04:46:17;;;;;;;3.55;1.15;;;1.90;82.70;;;;;;5095124;28;20058;-78
2022/04/01 04:48:45;;;;;;;3.55;1.42;;;1.90;82.90;;;;;;5078417;28;20032;-78
2022/04/01 04:51:11;;;;;;;2.97;1.23;;;1.90;82.90;;;;;;5077983;28;20511;-77
2022/04/01 04:53:39;;;;;;;4.32;1.60;;;1.90;82.80;;;;;;5094987;28;20498;-78
2022/04/01 04:56:05;;;;;;;6.22;1.52;;;2.00;82.80;;;;;;5095065;28;20043;-78
2022/04/01 04:58:39;;;;;;;3.05;1.30;;;2.00;82.90;;;;;;5078222;28;20039;-77
2022/04/01 05:01:12;;;;;;;4.97;1.40;;;1.90;83.00;;;;;;5095138;28;20380;-78
2022/04/01 05:03:48;;;;;;;6.35;1.40;;;2.00;82.90;;;;;;5094756;28;20050;-78
2022/04/01 05:06:21;;;;;;;4.60;1.50;;;2.00;82.90;;;;;;5094554;28;20153;-77
2022/04/01 05:09:05;;;;;;;7.82;1.63;;;1.90;82.70;;;;;;5094682;28;20066;-78
2022/04/01 05:11:56;;;;;;;6.10;1.77;;;2.00;82.80;;;;;;5078203;28;20078;-78
2022/04/01 05:14:38;;;;;;;6.25;1.67;;;2.00;82.90;;;;;;5078071;28;20108;-78
2022/04/01 05:17:04;;;;;;;6.95;1.55;;;2.00;83.00;;;;;;5094876;28;20052;-78
2022/04/01 05:19:31;;;;;;;5.25;1.70;;;2.00;82.80;;;;;;5094883;28;20433;-78
2022/04/01 05:22:02;;;;;;;3.00;1.20;;;2.00;82.60;;;;;;5094609;28;20399;-77
2022/04/01 05:24:38;;;;;;;4.05;1.27;;;2.00;82.60;;;;;;5094579;28;20079;-78
2022/04/01 05:27:08;;;;;;;3.78;1.40;;;2.00;82.60;;;;;;5096334;28;20117;-78
2022/04/01 05:29:42;;;;;;;5.32;1.70;;;2.00;82.70;;;;;;5081723;28;20391;-77
2022/04/01 05:32:13;;;;;;;7.68;1.58;;;2.00;82.50;;;;;;5081375;28;20472;-78
2022/04/01 05:34:49;;;;;;;8.88;3.25;;;2.10;82.30;;;;;;5082006;28;20079;-77
2022/04/01 05:37:17;;;;;;;5.70;1.50;;;2.10;82.50;;;;;;5097852;28;20508;-78
2022/04/01 05:39:46;;;;;;;3.30;1.50;;;2.00;82.40;;;;;;5097844;28;20538;-78
2022/04/01 05:42:13;;;;;;;2.80;1.20;;;2.10;82.60;;;;;;5081209;28;20039;-77
2022/04/01 05:44:42;;;;;;;7.18;1.60;;;2.10;82.50;;;;;;5098020;28;20400;-77
2022/04/01 05:47:08;;;;;;;4.20;1.38;;;2.10;82.40;;;;;;5080911;28;20035;-77
2022/04/01 05:49:41;;;;;;;4.07;1.48;;;2.10;82.60;;;;;;5080971;28;20046;-78
2022/04/01 05:52:12;;;;;;;5.40;1.27;;;2.10;82.50;;;;;;5097714;28;20043;-78
2022/04/01 05:54:42;;;;;;;4.28;1.30;;;2.10;82.40;;;;;;5097750;28;20044;-78
2022/04/01 05:57:10;;;;;;;5.95;1.70;;;2.10;82.30;;;;;;5097781;28;20484;-79
2022/04/01 05:59:36;;;;;;;6.75;2.28;;;2.10;82.50;;;;;;5080911;28;20097;-79
2022/04/01 06:02:36;;;;;;;4.60;1.50;;;2.10;82.40;;;;;;5097910;28;20507;-78
2022/04/01 06:05:12;;;;;;;6.30;1.50;;;2.10;82.60;;;;;;5097327;28;20046;-78
2022/04/01 06:08:04;;;;;;;4.95;1.65;;;2.10;82.40;;;;;;5080985;28;20096;-78
2022/04/01 06:11:06;;;;;;;3.88;1.50;;;2.10;82.40;;;;;;5046626;28;20145;-78
2022/04/01 06:13:58;;;;;;;6.95;2.55;;;2.10;82.20;;;;;;5090252;28;20106;-78
2022/04/01 06:16:39;;;;;;;3.15;1.15;;;2.10;82.30;;;;;;5096148;28;20043;-78
2022/04/01 06:19:16;;;;;;;5.05;1.63;;;2.10;82.20;;;;;;5096979;28;20036;-78
2022/04/01 06:21:54;;;;;;;7.22;1.75;;;2.10;81.60;;;;;;5097279;28;20365;-78
2022/04/01 06:24:41;;;;;;;6.45;1.70;;;2.10;82.00;;;;;;5096920;28;20400;-78
2022/04/01 06:27:11;;;;;;;4.82;1.08;;;2.20;81.60;;;;;;5096874;28;20076;-78
2022/04/01 06:29:42;;;;;;;3.40;1.50;;;2.20;81.90;;;;;;5080458;28;20376;-78
2022/04/01 06:32:36;;;;;;;4.35;1.55;;;2.20;81.60;;;;;;5096485;28;20039;-78
2022/04/01 06:35:17;;;;;;;5.07;1.63;;;2.20;81.40;;;;;;5096766;28;20146;-78
2022/04/01 06:38:08;;;;;;;6.43;2.20;;;2.30;81.60;;;;;;5096389;28;20527;-78
2022/04/01 06:40:45;;;;;;;3.50;1.58;;;2.30;81.50;;;;;;5078872;28;20139;-78
2022/04/01 06:43:11;;;;;;;3.35;1.35;;;2.30;81.50;;;;;;5080134;28;20480;-78
2022/04/01 06:45:40;;;;;;;2.95;1.50;;;2.30;80.30;;;;;;5079795;28;20047;-79
2022/04/01 06:48:06;;;;;;;3.80;1.40;;;2.30;81.20;;;;;;5080454;28;20043;-78
2022/04/01 06:50:32;;;;;;;3.72;1.40;;;2.30;81.30;;;;;;5079696;28;20047;-78
2022/04/01 06:52:58;;;;;;;2.92;1.08;;;2.30;80.90;;;;;;5079943;28;20047;-78
2022/04/01 06:55:24;;;;;;;5.75;1.40;;;2.40;80.70;;;;;;5079546;28;20487;-78
2022/04/01 06:57:50;;;;;;;4.93;1.63;;;2.40;81.10;;;;;;5096456;28;20047;-78
2022/04/01 07:00:17;;;;;;;3.58;1.42;;;2.40;80.90;;;;;;5096724;28;20035;-78
2022/04/01 07:02:43;;;;;;;5.32;1.48;;;2.40;80.80;;;;;;5079515;28;20047;-78
2022/04/01 07:05:13;;;;;;;4.15;1.40;;;2.50;81.10;;;;;;5096204;28;20051;-78
2022/04/01 07:07:43;;;;;;;3.47;1.35;;;2.40;80.50;;;;;;5096319;28;20046;-78
2022/04/01 07:10:13;;;;;;;4.63;1.58;;;2.50;80.80;;;;;;5079893;28;20040;-77
2022/04/01 07:12:40;;;;;;;4.78;1.20;;;2.60;80.60;;;;;;5079277;28;20038;-77
2022/04/01 07:15:10;;;;;;;3.95;1.17;;;2.50;80.60;;;;;;5096083;28;20040;-77
2022/04/01 07:17:36;;;;;;;3.97;1.42;;;2.50;80.40;;;;;;5079472;28;20039;-78
2022/04/01 07:20:03;;;;;;;3.20;1.42;;;2.60;79.90;;;;;;5096384;28;20480;-78
2022/04/01 07:22:29;;;;;;;5.63;1.30;;;2.60;80.50;;;;;;5096024;28;20086;-77
2022/04/01 07:24:55;;;;;;;4.80;1.73;;;2.60;80.00;;;;;;5096052;28;20066;-77
2022/04/01 07:27:21;;;;;;;8.40;1.50;;;2.60;80.30;;;;;;5078748;28;20483;-78
2022/04/01 07:29:47;;;;;;;3.13;1.08;;;2.60;80.30;;;;;;5062638;28;20521;-78
2022/04/01 07:34:58;;;;;;;3.58;1.25;;;2.70;79.90;;;;;;5095758;28;20097;-77
2022/04/01 07:37:24;;;;;;;4.43;1.10;;;2.80;79.80;;;;;;5095858;28;20040;-78
2022/04/01 07:39:51;;;;;;;5.28;1.80;;;2.90;79.60;;;;;;5095540;28;20066;-78
2022/04/01 07:42:21;;;;;;;2.08;1.20;;;2.90;79.40;;;;;;5079045;28;20048;-78
2022/04/01 07:44:51;;;;;;;3.97;1.20;;;2.90;79.20;;;;;;5095546;28;20078;-78
2022/04/01 07:47:18;;;;;;;6.70;1.40;;;3.00;79.40;;;;;;5095658;28;20036;-78
2022/04/01 07:49:46;;;;;;;5.60;1.25;;;3.00;79.00;;;;;;5078443;28;20050;-77
2022/04/01 07:52:13;;;;;;;6.13;1.60;;;3.00;79.00;;;;;;5078912;28;20040;-78
2022/04/01 07:54:41;;;;;;;2.72;1.30;;;3.10;78.70;;;;;;5078950;28;20107;-78
2022/04/01 07:57:08;;;;;;;5.38;1.35;;;3.10;78.50;;;;;;5095262;28;20483;-77
2022/04/01 07:59:35;;;;;;;3.30;1.42;;;3.10;78.60;;;;;;5095726;28;20516;-78
2022/04/01 08:02:02;;;;;;;7.32;1.50;;;3.10;78.70;;;;;;5095711;28;20035;-78
2022/04/01 08:04:28;;;;;;;4.45;1.45;;;3.10;78.80;;;;;;5095310;28;20044;-78
2022/04/01 08:06:54;;;;;;;7.55;1.13;;;3.10;78.40;;;;;;5095437;28;20117;-79
2022/04/01 08:09:20;;;;;;;3.08;1.35;;;3.20;78.80;;;;;;5061810;28;20036;-79
2022/04/01 08:11:46;;;;;;;7.00;1.35;;;3.20;78.50;;;;;;5095247;28;20036;-79
2022/04/01 08:14:12;;;;;;;5.45;1.77;;;3.30;78.70;;;;;;5095178;28;20043;-78
2022/04/01 08:16:38;;;;;;;2.72;1.00;;;3.30;78.90;;;;;;5078345;28;20039;-79
2022/04/01 08:19:05;;;;;;;3.15;1.30;;;3.40;78.30;;;;;;5095426;28;20436;-80
2022/04/01 08:21:31;;;;;;;4.43;1.48;;;3.40;78.10;;;;;;5095124;28;20071;-79
2022/04/01 08:23:58;;;;;;;3.22;1.20;;;3.50;78.00;;;;;;5094892;28;20118;-78
2022/04/01 08:26:24;;;;;;;3.97;1.70;;;3.60;78.40;;;;;;5095233;28;20047;-78
2022/04/01 08:28:50;;;;;;;4.25;1.40;;;3.60;77.20;;;;;;5061660;28;20122;-79
2022/04/01 08:31:17;;;;;;;4.55;1.38;;;3.60;77.00;;;;;;5095080;28;20139;-79
2022/04/01 08:33:43;;;;;;;5.68;1.70;;;3.60;76.30;;;;;;5078213;28;20035;-78
2022/04/01 08:36:09;;;;;;;4.25;1.25;;;3.60;76.70;;;;;;5078437;28;20062;-78
2022/04/01 08:38:34;;;;;;;2.72;1.15;;;3.70;76.70;;;;;;5095014;28;20495;-78
2022/04/01 08:41:00;;;;;;;3.85;1.33;;;3.80;77.40;;;;;;5094787;28;20064;-78
2022/04/01 08:43:27;;;;;;;4.40;1.58;;;3.80;76.10;;;;;;5078195;28;20127;-78
2022/04/01 08:45:55;;;;;;;3.33;1.35;;;3.80;76.80;;;;;;5077995;28;20040;-78
2022/04/01 08:48:21;;;;;;;4.40;1.42;;;3.70;75.10;;;;;;5094920;28;20046;-78
2022/04/01 08:50:46;;;;;;;2.80;1.33;;;3.80;76.50;;;;;;5094863;28;20046;-78
2022/04/01 08:53:12;;;;;;;5.82;1.45;;;3.80;76.90;;;;;;5094881;28;20036;-78
2022/04/01 08:55:38;;;;;;;2.40;1.10;;;3.80;76.50;;;;;;5095103;28;20047;-78
2022/04/01 08:58:08;;;;;;;5.07;1.40;;;3.90;76.20;;;;;;5078168;28;20403;-78
2022/04/01 09:00:35;;;;;;;6.47;1.52;;;3.90;76.10;;;;;;5079359;28;20081;-78
2022/04/01 09:03:06;;;;;;;3.85;1.30;;;4.00;76.50;;;;;;5081837;28;20051;-78
2022/04/01 09:05:32;;;;;;;3.53;1.23;;;4.00;76.00;;;;;;5098645;28;20124;-78
2022/04/01 09:08:03;;;;;;;2.78;1.45;;;4.00;76.60;;;;;;5081852;28;20075;-78
2022/04/01 09:10:29;;;;;;;3.95;1.63;;;4.00;75.80;;;;;;5081695;28;20035;-78
2022/04/01 09:12:55;;;;;;;2.95;1.40;;;4.10;76.80;;;;;;5081651;28;20031;-78
2022/04/01 09:15:21;;;;;;;3.90;1.75;;;4.00;76.30;;;;;;5098408;28;20082;-78
2022/04/01 09:17:49;;;;;;;3.80;1.30;;;4.10;76.40;;;;;;5098429;28;20448;-78
2022/04/01 09:20:15;;;;;;;2.80;1.50;;;4.10;76.60;;;;;;5098336;28;20133;-78
2022/04/01 09:22:43;;;;;;;4.55;1.30;;;4.00;75.80;;;;;;5081451;28;20040;-78
2022/04/01 09:25:09;;;;;;;2.22;1.30;;;3.90;76.10;;;;;;5081396;28;20089;-78
2022/04/01 09:27:46;;;;;;;2.60;1.40;;;4.00;76.90;;;;;;5098230;28;20036;-78
2022/04/01 09:30:15;;;;;;;5.32;1.80;;;4.10;77.30;;;;;;5098200;28;20089;-78
2022/04/01 09:32:47;;;;;;;5.85;1.65;;;4.30;77.00;;;;;;5081305;28;20032;-77
2022/04/01 09:35:13;;;;;;;3.13;1.85;;;4.30;76.50;;;;;;5098122;28;20484;-78
2022/04/01 09:38:09;;;;;;;5.40;1.58;;;4.40;76.70;;;;;;5098055;28;20062;-78
2022/04/01 09:40:37;;;;;;;;;;;4.60;76.20;;;;;;5098385;28;20134;-78
2022/04/01 09:43:03;;;;;;;3.67;1.77;;;4.60;76.20;;;;;;5098082;28;19951;-78
2022/04/01 09:45:37;;;;;;;3.03;1.33;;;4.60;74.40;;;;;;5097663;28;20071;-78
2022/04/01 09:48:08;;;;;;;4.32;1.77;;;4.60;75.30;;;;;;5097905;28;20100;-78
2022/04/01 09:50:40;;;;;;;4.32;1.88;;;4.70;75.60;;;;;;5097978;28;20073;-78
2022/04/01 09:53:14;;;;;;;2.70;1.58;;;4.70;73.60;;;;;;5097790;28;20514;-78
2022/04/01 09:55:43;;;;;;;2.58;1.20;;;4.70;74.60;;;;;;5081141;28;20046;-78
2022/04/01 09:58:09;;;;;;;3.40;1.77;;;4.80;75.10;;;;;;5097649;28;20122;-78
2022/04/01 10:00:36;;;;;;;3.47;1.50;;;4.70;72.20;;;;;;5097394;28;20039;-78
2022/04/01 10:03:07;;;;;;;3.75;1.70;;;4.70;73.00;;;;;;5080770;28;20131;-78
2022/04/01 10:05:37;;;;;;;5.70;1.40;;;4.80;72.90;;;;;;5080593;28;20040;-78
2022/04/01 10:08:06;;;;;;;3.13;1.73;;;5.00;73.70;;;;;;5080817;28;20071;-78
2022/04/01 10:10:32;;;;;;;2.80;1.20;;;5.10;73.70;;;;;;5097390;28;20032;-78
2022/04/01 10:13:02;;;;;;;3.45;1.35;;;5.00;73.10;;;;;;5080167;28;20031;-78
2022/04/01 10:15:29;;;;;;;6.32;1.83;;;5.10;73.20;;;;;;5097303;28;20439;-78
2022/04/01 10:18:01;;;;;;;3.13;1.45;;;5.10;72.90;;;;;;5097089;28;20079;-78
2022/04/01 10:20:33;;;;;;;4.68;1.35;;;5.10;73.40;;;;;;5097334;28;20047;-78
2022/04/01 10:23:04;;;;;;;2.00;1.00;;;5.10;73.30;;;;;;5097401;28;20036;-79
2022/04/01 10:26:02;;;;;;;3.78;1.40;;;5.10;71.80;;;;;;5096952;28;20104;-78
2022/04/01 10:28:28;;;;;;;4.82;1.30;;;5.10;72.50;;;;;;5079322;28;20048;-78
2022/04/01 10:30:56;;;;;;;4.25;1.15;;;5.00;70.30;;;;;;5097207;28;20095;-78
2022/04/01 10:33:35;;;;;;;3.47;2.35;;;5.00;71.00;;;;;;5096943;28;20039;-78
2022/04/01 10:36:26;;;;;;;3.90;1.15;;;5.00;69.70;;;;;;5096938;28;20046;-78
2022/04/01 10:39:01;;;;;;;2.70;1.70;;;5.10;70.10;;;;;;5096545;28;20079;-78
2022/04/01 10:41:26;;;;;;;4.57;1.65;;;5.10;70.10;;;;;;5080015;28;20082;-78
2022/04/01 10:43:57;;;;;;;5.03;1.42;;;5.30;71.00;;;;;;5096641;28;20052;-77
2022/04/01 10:46:23;;;;;;;3.90;1.30;;;5.40;69.60;;;;;;5079710;28;20046;-78
2022/04/01 10:52:11;;;;;;;4.00;1.52;;;5.50;68.70;;;;;;5076031;28;20094;-78
2022/04/01 10:54:42;;;;;;;2.00;1.25;;;5.60;68.90;;;;;;5074812;28;20107;-78
2022/04/01 10:57:10;;;;;;;4.18;1.30;;;5.60;69.00;;;;;;5081213;28;20445;-80
2022/04/01 10:59:46;;;;;;;1.90;1.23;;;5.60;69.30;;;;;;5055873;28;20143;-78
2022/04/01 11:02:15;;;;;;;4.82;1.42;;;5.60;68.10;;;;;;5081165;28;20458;-78
2022/04/01 11:04:43;;;;;;;2.65;1.30;;;5.70;69.70;;;;;;5061625;28;20079;-77
2022/04/01 11:07:29;;;;;;;2.58;1.20;;;5.80;68.90;;;;;;5080211;28;20624;-77
2022/04/01 11:09:57;;;;;;;2.95;1.17;;;5.80;67.90;;;;;;5071727;28;20040;-77
2022/04/01 11:12:27;;;;;;;3.08;1.25;;;5.80;68.90;;;;;;5073151;28;20091;-77
2022/04/01 11:14:59;;;;;;;1.88;1.20;;;5.80;67.10;;;;;;5080555;28;20043;-77
2022/04/01 11:17:27;;;;;;;1.75;1.00;;;5.80;67.60;;;;;;5073406;28;20039;-77
2022/04/01 11:20:13;;;;;;;6.47;1.40;;;5.80;67.40;;;;;;5072415;28;20050;-78
2022/04/01 11:22:45;;;;;;;2.42;1.10;;;5.70;67.20;;;;;;5063393;28;20048;-77
2022/04/01 11:25:12;;;;;;;3.55;1.42;;;5.60;68.10;;;;;;5060150;28;20138;-77
2022/04/01 11:27:48;;;;;;;3.38;1.52;;;5.60;67.80;;;;;;5072869;28;20051;-77
2022/04/01 11:30:15;;;;;;;3.63;1.38;;;5.40;68.30;;;;;;5071473;28;20123;-77
2022/04/01 11:32:47;;;;;;;2.20;1.20;;;5.30;68.30;;;;;;5060175;28;20052;-77
2022/04/01 11:35:15;;;;;;;4.93;1.55;;;5.20;68.30;;;;;;5078638;28;20079;-77
2022/04/01 11:37:43;;;;;;;2.47;1.30;;;5.20;68.90;;;;;;5077733;28;20484;-77
2022/04/01 11:40:30;;;;;;;4.50;1.23;;;5.10;68.70;;;;;;5070010;28;20096;-77
2022/04/01 11:43:10;;;;;;;3.00;1.40;;;5.10;69.10;;;;;;5076000;28;20086;-77
2022/04/01 11:45:39;;;;;;;4.18;1.52;;;5.20;69.80;;;;;;5061796;28;20473;-77
2022/04/01 11:48:19;;;;;;;5.53;1.65;;;5.30;70.50;;;;;;5071542;28;20096;-77
2022/04/01 11:50:47;;;;;;;2.85;1.58;;;5.30;70.10;;;;;;5062042;28;21046;-78
2022/04/01 11:53:20;;;;;;;4.75;1.55;;;5.40;69.90;;;;;;5081177;28;20079;-77
2022/04/01 11:55:46;;;;;;;10.15;3.63;;;5.60;67.90;;;;;;5080030;28;20485;-77
2022/04/01 11:58:12;;;;;;;2.05;1.00;;;5.60;68.70;;;;;;5077575;28;20051;-77
2022/04/01 12:00:37;;;;;;;3.10;1.20;;;5.60;68.50;;;;;;5076965;28;20075;-76
2022/04/01 12:03:03;;;;;;;3.08;1.42;;;5.60;68.50;;;;;;5077892;28;20075;-77
2022/04/01 12:05:32;;;;;;;4.47;1.58;;;5.60;69.00;;;;;;5075722;28;20044;-77
2022/04/01 12:11:11;;;;;;;3.58;1.35;;;5.60;67.50;;;;;;5077319;28;20511;-77
2022/04/01 12:13:48;;;;;;;2.88;1.05;;;5.50;68.20;;;;;;5072866;28;20175;-77
2022/04/01 12:16:13;;;;;;;2.00;0.98;;;5.30;67.20;;;;;;5076335;28;20044;-77
2022/04/01 12:18:47;;;;;;;5.30;1.20;;;5.20;67.90;;;;;;5058066;28;20050;-77
2022/04/01 12:21:21;;;;;;;3.33;1.17;;;5.20;69.00;;;;;;5080487;28;20094;-77
2022/04/01 12:23:49;;;;;;;3.42;1.60;;;5.10;69.60;;;;;;5068807;28;20179;-77
2022/04/01 12:26:20;;;;;;;3.90;1.15;;;5.20;69.70;;;;;;5077320;28;20447;-78
2022/04/01 12:28:49;;;;;;;4.45;1.75;;;5.40;70.20;;;;;;5070000;28;20036;-78
2022/04/01 12:31:26;;;;;;;6.60;1.55;;;5.50;70.30;;;;;;5077770;28;20044;-77
2022/04/01 12:33:55;;;;;;;4.07;1.33;;;5.70;69.20;;;;;;5075840;28;20050;-77
2022/04/01 12:36:51;;;;;;;4.68;1.75;;;5.70;67.40;;;;;;5082713;28;20040;-77
2022/04/01 12:39:17;;;;;;;2.75;1.77;;;5.80;67.30;;;;;;5075116;28;20102;-77
2022/04/01 12:41:57;;;;;;;18.23;3.00;;;5.80;67.40;;;;;;5068547;28;20087;-77
2022/04/01 12:44:26;;;;;;;3.38;1.30;;;5.80;65.30;;;;;;5077870;28;20082;-77
2022/04/01 12:46:53;;;;;;;6.00;1.63;;;5.80;65.80;;;;;;5078240;28;20051;-77
2022/04/01 12:49:24;;;;;;;4.00;1.45;;;5.80;66.10;;;;;;5060725;28;20040;-78
2022/04/01 12:52:01;;;;;;;3.17;1.10;;;5.80;66.00;;;;;;5080257;28;20040;-77
2022/04/01 12:54:37;;;;;;;3.03;1.23;;;5.80;66.60;;;;;;5059396;28;20036;-77
2022/04/01 12:57:08;;;;;;;2.80;1.50;;;5.70;66.80;;;;;;5062346;28;20043;-77
2022/04/01 12:59:45;;;;;;;5.18;1.70;;;6.00;66.40;;;;;;5076964;28;20044;-77
2022/04/01 13:02:15;;;;;;;2.60;1.70;;;6.20;66.30;;;;;;5083099;28;20128;-78
2022/04/01 13:05:10;;;;;;;3.10;1.48;;;6.50;66.10;;;;;;5064083;28;20134;-78
2022/04/01 13:07:36;;;;;;;4.35;1.42;;;6.60;64.70;;;;;;5079551;28;20032;-78
2022/04/01 13:10:07;;;;;;;4.93;1.60;;;6.80;62.80;;;;;;5077786;28;20440;-78
2022/04/01 13:12:42;;;;;;;6.47;1.48;;;6.80;62.90;;;;;;5078914;28;20035;-78
2022/04/01 13:15:10;;;;;;;3.13;1.10;;;7.00;62.00;;;;;;5084318;28;20133;-78
2022/04/01 13:17:43;;;;;;;4.47;1.40;;;7.10;62.10;;;;;;5074622;28;20079;-79
2022/04/01 13:20:11;;;;;;;3.42;1.15;;;7.10;60.80;;;;;;5077158;28;20130;-78
2022/04/01 13:22:38;;;;;;;2.50;1.00;;;7.30;59.30;;;;;;5064805;28;20043;-78
2022/04/01 13:25:05;;;;;;;3.83;1.20;;;7.30;60.10;;;;;;5077599;28;20046;-78